sensor_id;sensor_type;location;lat;lon;timestamp;P1;durP1;ratioP1;P2;durP2;ratioP2
69036;SDS011;58547;51.690;5.186;2022-08-02T00:02:09;4.90;;;1.80;;
69036;SDS011;58547;51.690;5.186;2022-08-02T00:09:25;7.13;;;1.90;;
69036;SDS011;58547;51.690;5.186;2022-08-02T00:16:41;6.53;;;2.07;;
69036;SDS011;58547;51.690;5.186;2022-08-02T00:21:32;4.30;;;1.87;;
69036;SDS011;58547;51.690;5.186;2022-08-02T00:28:47;3.10;;;1.67;;
69036;SDS011;58547;51.690;5.186;2022-08-02T00:33:38;3.92;;;2.28;;
69036;SDS011;58547;51.690;5.186;2022-08-02T00:38:29;3.92;;;1.80;;
69036;SDS011;58547;51.690;5.186;2022-08-02T00:43:20;5.28;;;1.90;;
69036;SDS011;58547;51.690;5.186;2022-08-02T00:48:11;4.35;;;1.80;;
69036;SDS011;58547;51.690;5.186;2022-08-02T00:50:37;3.38;;;1.52;;
69036;SDS011;58547;51.690;5.186;2022-08-02T00:53:03;5.10;;;1.95;;
69036;SDS011;58547;51.690;5.186;2022-08-02T00:55:30;3.47;;;1.67;;
69036;SDS011;58547;51.690;5.186;2022-08-02T00:57:56;5.53;;;1.45;;
69036;SDS011;58547;51.690;5.186;2022-08-02T01:02:47;4.55;;;1.52;;
69036;SDS011;58547;51.690;5.186;2022-08-02T01:07:38;4.53;;;1.50;;
69036;SDS011;58547;51.690;5.186;2022-08-02T01:12:30;2.53;;;1.40;;
69036;SDS011;58547;51.690;5.186;2022-08-02T01:23:24;7.72;;;1.77;;
69036;SDS011;58547;51.690;5.186;2022-08-02T01:29:03;3.05;;;1.70;;
69036;SDS011;58547;51.690;5.186;2022-08-02T01:31:49;5.78;;;1.85;;
69036;SDS011;58547;51.690;5.186;2022-08-02T01:40:09;3.95;;;1.45;;
69036;SDS011;58547;51.690;5.186;2022-08-02T01:42:36;6.40;;;1.70;;
69036;SDS011;58547;51.690;5.186;2022-08-02T01:45:04;6.57;;;2.40;;
69036;SDS011;58547;51.690;5.186;2022-08-02T01:47:33;2.83;;;1.33;;
69036;SDS011;58547;51.690;5.186;2022-08-02T01:50:02;2.53;;;2.10;;
69036;SDS011;58547;51.690;5.186;2022-08-02T01:52:30;5.10;;;2.03;;
69036;SDS011;58547;51.690;5.186;2022-08-02T01:57:33;4.40;;;1.90;;
69036;SDS011;58547;51.690;5.186;2022-08-02T02:00:06;6.78;;;1.88;;
69036;SDS011;58547;51.690;5.186;2022-08-02T02:02:36;6.05;;;2.00;;
69036;SDS011;58547;51.690;5.186;2022-08-02T02:05:05;4.30;;;1.77;;
69036;SDS011;58547;51.690;5.186;2022-08-02T02:07:34;4.00;;;1.88;;
69036;SDS011;58547;51.690;5.186;2022-08-02T02:12:26;4.25;;;1.73;;
69036;SDS011;58547;51.690;5.186;2022-08-02T02:14:55;3.90;;;1.50;;
69036;SDS011;58547;51.690;5.186;2022-08-02T02:17:22;5.43;;;2.10;;
69036;SDS011;58547;51.690;5.186;2022-08-02T02:19:49;6.18;;;1.70;;
69036;SDS011;58547;51.690;5.186;2022-08-02T02:22:17;4.53;;;1.63;;
69036;SDS011;58547;51.690;5.186;2022-08-02T02:27:07;6.33;;;1.87;;
69036;SDS011;58547;51.690;5.186;2022-08-02T02:29:36;5.45;;;2.10;;
69036;SDS011;58547;51.690;5.186;2022-08-02T02:32:07;7.30;;;2.15;;
69036;SDS011;58547;51.690;5.186;2022-08-02T02:37:04;4.45;;;2.00;;
69036;SDS011;58547;51.690;5.186;2022-08-02T02:39:31;4.82;;;1.98;;
69036;SDS011;58547;51.690;5.186;2022-08-02T02:42:00;5.25;;;1.88;;
69036;SDS011;58547;51.690;5.186;2022-08-02T02:44:27;3.80;;;1.65;;
69036;SDS011;58547;51.690;5.186;2022-08-02T02:46:55;4.43;;;1.95;;
69036;SDS011;58547;51.690;5.186;2022-08-02T02:49:21;6.55;;;1.77;;
69036;SDS011;58547;51.690;5.186;2022-08-02T02:51:48;5.40;;;1.80;;
69036;SDS011;58547;51.690;5.186;2022-08-02T02:54:15;3.42;;;1.98;;
69036;SDS011;58547;51.690;5.186;2022-08-02T02:56:41;4.88;;;2.10;;
69036;SDS011;58547;51.690;5.186;2022-08-02T02:59:08;12.95;;;2.95;;
69036;SDS011;58547;51.690;5.186;2022-08-02T03:01:34;11.27;;;2.30;;
69036;SDS011;58547;51.690;5.186;2022-08-02T03:04:04;6.53;;;2.60;;
69036;SDS011;58547;51.690;5.186;2022-08-02T03:06:31;5.80;;;2.75;;
69036;SDS011;58547;51.690;5.186;2022-08-02T03:08:58;7.10;;;2.72;;
69036;SDS011;58547;51.690;5.186;2022-08-02T03:11:24;8.02;;;2.88;;
69036;SDS011;58547;51.690;5.186;2022-08-02T03:13:53;5.72;;;2.33;;
69036;SDS011;58547;51.690;5.186;2022-08-02T03:16:23;3.58;;;2.05;;
69036;SDS011;58547;51.690;5.186;2022-08-02T03:18:49;7.82;;;2.20;;
69036;SDS011;58547;51.690;5.186;2022-08-02T03:23:40;5.00;;;2.00;;
69036;SDS011;58547;51.690;5.186;2022-08-02T03:26:07;4.28;;;2.30;;
69036;SDS011;58547;51.690;5.186;2022-08-02T03:28:33;4.75;;;2.10;;
69036;SDS011;58547;51.690;5.186;2022-08-02T03:33:25;5.22;;;2.35;;
69036;SDS011;58547;51.690;5.186;2022-08-02T03:38:19;6.80;;;2.22;;
69036;SDS011;58547;51.690;5.186;2022-08-02T03:40:46;8.55;;;2.70;;
69036;SDS011;58547;51.690;5.186;2022-08-02T03:43:13;3.97;;;2.30;;
69036;SDS011;58547;51.690;5.186;2022-08-02T03:45:45;9.55;;;2.40;;
69036;SDS011;58547;51.690;5.186;2022-08-02T03:48:12;8.20;;;2.33;;
69036;SDS011;58547;51.690;5.186;2022-08-02T03:50:39;6.70;;;2.45;;
69036;SDS011;58547;51.690;5.186;2022-08-02T03:53:06;6.30;;;2.80;;
69036;SDS011;58547;51.690;5.186;2022-08-02T03:55:32;4.00;;;2.60;;
69036;SDS011;58547;51.690;5.186;2022-08-02T03:57:58;6.03;;;3.35;;
69036;SDS011;58547;51.690;5.186;2022-08-02T04:02:49;5.70;;;2.38;;
69036;SDS011;58547;51.690;5.186;2022-08-02T04:10:07;10.57;;;2.70;;
69036;SDS011;58547;51.690;5.186;2022-08-02T04:12:34;7.20;;;2.50;;
69036;SDS011;58547;51.690;5.186;2022-08-02T04:17:26;8.07;;;2.90;;
69036;SDS011;58547;51.690;5.186;2022-08-02T04:19:55;6.60;;;2.35;;
69036;SDS011;58547;51.690;5.186;2022-08-02T04:22:30;4.90;;;2.25;;
69036;SDS011;58547;51.690;5.186;2022-08-02T04:25:02;7.80;;;2.58;;
69036;SDS011;58547;51.690;5.186;2022-08-02T04:27:31;5.00;;;2.60;;
69036;SDS011;58547;51.690;5.186;2022-08-02T04:32:24;4.20;;;2.55;;
69036;SDS011;58547;51.690;5.186;2022-08-02T04:37:15;5.63;;;2.38;;
69036;SDS011;58547;51.690;5.186;2022-08-02T04:42:06;7.95;;;2.90;;
69036;SDS011;58547;51.690;5.186;2022-08-02T04:44:31;4.63;;;2.65;;
69036;SDS011;58547;51.690;5.186;2022-08-02T04:49:23;11.63;;;3.75;;
69036;SDS011;58547;51.690;5.186;2022-08-02T04:54:14;9.90;;;2.87;;
69036;SDS011;58547;51.690;5.186;2022-08-02T04:59:05;6.30;;;2.60;;
69036;SDS011;58547;51.690;5.186;2022-08-02T05:01:30;6.57;;;2.95;;
69036;SDS011;58547;51.690;5.186;2022-08-02T05:06:21;6.03;;;2.67;;
69036;SDS011;58547;51.690;5.186;2022-08-02T05:08:47;10.48;;;3.20;;
69036;SDS011;58547;51.690;5.186;2022-08-02T05:13:39;8.23;;;3.03;;
69036;SDS011;58547;51.690;5.186;2022-08-02T05:16:05;10.18;;;3.38;;
69036;SDS011;58547;51.690;5.186;2022-08-02T05:20:55;6.67;;;3.47;;
69036;SDS011;58547;51.690;5.186;2022-08-02T05:25:46;10.73;;;4.40;;
69036;SDS011;58547;51.690;5.186;2022-08-02T05:30:36;8.43;;;3.77;;
69036;SDS011;58547;51.690;5.186;2022-08-02T05:33:02;8.02;;;3.92;;
69036;SDS011;58547;51.690;5.186;2022-08-02T05:35:28;10.05;;;3.30;;
69036;SDS011;58547;51.690;5.186;2022-08-02T05:42:44;14.97;;;4.97;;
69036;SDS011;58547;51.690;5.186;2022-08-02T05:45:10;7.85;;;4.70;;
69036;SDS011;58547;51.690;5.186;2022-08-02T05:52:29;14.37;;;5.57;;
69036;SDS011;58547;51.690;5.186;2022-08-02T05:55:17;14.52;;;5.68;;
69036;SDS011;58547;51.690;5.186;2022-08-02T05:58:15;9.20;;;5.32;;
69036;SDS011;58547;51.690;5.186;2022-08-02T06:00:45;7.43;;;4.50;;
69036;SDS011;58547;51.690;5.186;2022-08-02T06:03:15;12.57;;;4.88;;
69036;SDS011;58547;51.690;5.186;2022-08-02T06:08:32;12.00;;;6.10;;
69036;SDS011;58547;51.690;5.186;2022-08-02T06:11:13;15.73;;;6.43;;
69036;SDS011;58547;51.690;5.186;2022-08-02T06:13:45;10.23;;;5.63;;
69036;SDS011;58547;51.690;5.186;2022-08-02T06:16:11;13.30;;;7.15;;
69036;SDS011;58547;51.690;5.186;2022-08-02T06:21:05;12.68;;;6.55;;
69036;SDS011;58547;51.690;5.186;2022-08-02T06:23:32;9.98;;;7.00;;
69036;SDS011;58547;51.690;5.186;2022-08-02T06:28:24;17.90;;;8.27;;
69036;SDS011;58547;51.690;5.186;2022-08-02T06:30:51;12.73;;;7.45;;
69036;SDS011;58547;51.690;5.186;2022-08-02T06:35:48;14.40;;;8.38;;
69036;SDS011;58547;51.690;5.186;2022-08-02T06:38:23;13.57;;;6.90;;
69036;SDS011;58547;51.690;5.186;2022-08-02T06:41:02;15.65;;;7.43;;
69036;SDS011;58547;51.690;5.186;2022-08-02T06:46:17;14.18;;;8.32;;
69036;SDS011;58547;51.690;5.186;2022-08-02T06:51:08;18.23;;;8.95;;
69036;SDS011;58547;51.690;5.186;2022-08-02T06:55:58;19.40;;;9.13;;
69036;SDS011;58547;51.690;5.186;2022-08-02T07:00:49;19.43;;;8.87;;
69036;SDS011;58547;51.690;5.186;2022-08-02T07:05:40;14.65;;;9.48;;
69036;SDS011;58547;51.690;5.186;2022-08-02T07:10:31;17.90;;;10.43;;
69036;SDS011;58547;51.690;5.186;2022-08-02T07:12:56;20.10;;;11.40;;
69036;SDS011;58547;51.690;5.186;2022-08-02T07:17:47;19.93;;;9.77;;
69036;SDS011;58547;51.690;5.186;2022-08-02T07:22:39;18.58;;;10.07;;
69036;SDS011;58547;51.690;5.186;2022-08-02T07:25:05;20.00;;;8.60;;
69036;SDS011;58547;51.690;5.186;2022-08-02T07:27:31;16.15;;;10.40;;
69036;SDS011;58547;51.690;5.186;2022-08-02T07:29:57;13.77;;;8.43;;
69036;SDS011;58547;51.690;5.186;2022-08-02T07:34:49;12.45;;;7.72;;
69036;SDS011;58547;51.690;5.186;2022-08-02T07:37:15;13.75;;;8.13;;
69036;SDS011;58547;51.690;5.186;2022-08-02T07:39:40;14.23;;;8.00;;
69036;SDS011;58547;51.690;5.186;2022-08-02T07:42:06;12.13;;;7.45;;
69036;SDS011;58547;51.690;5.186;2022-08-02T07:47:02;12.75;;;7.70;;
69036;SDS011;58547;51.690;5.186;2022-08-02T07:49:28;18.27;;;9.20;;
69036;SDS011;58547;51.690;5.186;2022-08-02T07:51:53;10.00;;;6.72;;
69036;SDS011;58547;51.690;5.186;2022-08-02T08:01:35;10.37;;;6.13;;
69036;SDS011;58547;51.690;5.186;2022-08-02T08:04:01;10.25;;;6.68;;
69036;SDS011;58547;51.690;5.186;2022-08-02T08:06:27;9.30;;;5.90;;
69036;SDS011;58547;51.690;5.186;2022-08-02T08:08:53;8.73;;;6.50;;
69036;SDS011;58547;51.690;5.186;2022-08-02T08:11:19;10.85;;;5.93;;
69036;SDS011;58547;51.690;5.186;2022-08-02T08:13:44;7.85;;;4.85;;
69036;SDS011;58547;51.690;5.186;2022-08-02T08:16:10;6.85;;;4.60;;
69036;SDS011;58547;51.690;5.186;2022-08-02T08:18:35;10.75;;;5.43;;
69036;SDS011;58547;51.690;5.186;2022-08-02T08:21:00;9.93;;;5.95;;
69036;SDS011;58547;51.690;5.186;2022-08-02T08:23:26;7.53;;;4.88;;
69036;SDS011;58547;51.690;5.186;2022-08-02T08:25:51;12.60;;;5.72;;
69036;SDS011;58547;51.690;5.186;2022-08-02T08:28:16;9.95;;;5.07;;
69036;SDS011;58547;51.690;5.186;2022-08-02T08:30:45;12.50;;;4.53;;
69036;SDS011;58547;51.690;5.186;2022-08-02T08:33:11;7.47;;;4.45;;
69036;SDS011;58547;51.690;5.186;2022-08-02T08:35:37;8.77;;;4.25;;
69036;SDS011;58547;51.690;5.186;2022-08-02T08:38:02;8.93;;;4.18;;
69036;SDS011;58547;51.690;5.186;2022-08-02T08:40:28;6.55;;;3.90;;
69036;SDS011;58547;51.690;5.186;2022-08-02T08:42:54;10.40;;;4.18;;
69036;SDS011;58547;51.690;5.186;2022-08-02T08:45:19;8.43;;;3.80;;
69036;SDS011;58547;51.690;5.186;2022-08-02T08:47:46;8.32;;;3.90;;
69036;SDS011;58547;51.690;5.186;2022-08-02T08:50:24;7.22;;;4.05;;
69036;SDS011;58547;51.690;5.186;2022-08-02T08:53:03;7.88;;;3.55;;
69036;SDS011;58547;51.690;5.186;2022-08-02T08:55:31;6.78;;;3.03;;
69036;SDS011;58547;51.690;5.186;2022-08-02T08:57:58;7.28;;;3.00;;
69036;SDS011;58547;51.690;5.186;2022-08-02T09:00:24;6.45;;;3.33;;
69036;SDS011;58547;51.690;5.186;2022-08-02T09:02:51;4.20;;;2.80;;
69036;SDS011;58547;51.690;5.186;2022-08-02T09:05:17;6.13;;;3.10;;
69036;SDS011;58547;51.690;5.186;2022-08-02T09:07:44;6.82;;;3.67;;
69036;SDS011;58547;51.690;5.186;2022-08-02T09:15:45;7.45;;;3.28;;
69036;SDS011;58547;51.690;5.186;2022-08-02T09:18:17;4.32;;;2.50;;
69036;SDS011;58547;51.690;5.186;2022-08-02T09:20:52;6.88;;;3.38;;
69036;SDS011;58547;51.690;5.186;2022-08-02T09:23:21;4.45;;;2.75;;
69036;SDS011;58547;51.690;5.186;2022-08-02T09:25:59;4.53;;;3.22;;
69036;SDS011;58547;51.690;5.186;2022-08-02T09:28:31;3.42;;;2.33;;
69036;SDS011;58547;51.690;5.186;2022-08-02T09:31:02;4.75;;;2.30;;
69036;SDS011;58547;51.690;5.186;2022-08-02T09:33:28;4.35;;;2.60;;
69036;SDS011;58547;51.690;5.186;2022-08-02T09:36:01;4.38;;;2.70;;
69036;SDS011;58547;51.690;5.186;2022-08-02T09:38:31;4.70;;;2.63;;
69036;SDS011;58547;51.690;5.186;2022-08-02T09:40:57;4.18;;;2.53;;
69036;SDS011;58547;51.690;5.186;2022-08-02T09:43:41;5.72;;;1.92;;
69036;SDS011;58547;51.690;5.186;2022-08-02T09:46:17;4.85;;;2.22;;
69036;SDS011;58547;51.690;5.186;2022-08-02T09:48:48;5.13;;;1.77;;
69036;SDS011;58547;51.690;5.186;2022-08-02T09:51:27;3.20;;;2.05;;
69036;SDS011;58547;51.690;5.186;2022-08-02T09:53:57;4.13;;;1.80;;
69036;SDS011;58547;51.690;5.186;2022-08-02T09:56:26;4.30;;;2.03;;
69036;SDS011;58547;51.690;5.186;2022-08-02T09:59:05;5.32;;;1.90;;
69036;SDS011;58547;51.690;5.186;2022-08-02T10:01:31;2.22;;;1.70;;
69036;SDS011;58547;51.690;5.186;2022-08-02T10:03:58;4.82;;;1.85;;
69036;SDS011;58547;51.690;5.186;2022-08-02T10:06:28;4.88;;;1.90;;
69036;SDS011;58547;51.690;5.186;2022-08-02T10:08:54;4.32;;;1.88;;
69036;SDS011;58547;51.690;5.186;2022-08-02T10:11:20;5.40;;;1.80;;
69036;SDS011;58547;51.690;5.186;2022-08-02T10:13:47;2.95;;;1.88;;
69036;SDS011;58547;51.690;5.186;2022-08-02T10:16:13;3.90;;;1.55;;
69036;SDS011;58547;51.690;5.186;2022-08-02T10:18:41;11.23;;;1.73;;
69036;SDS011;58547;51.690;5.186;2022-08-02T10:21:19;3.72;;;1.77;;
69036;SDS011;58547;51.690;5.186;2022-08-02T10:23:56;3.08;;;1.75;;
69036;SDS011;58547;51.690;5.186;2022-08-02T10:26:30;2.85;;;1.35;;
69036;SDS011;58547;51.690;5.186;2022-08-02T10:28:57;4.00;;;1.90;;
69036;SDS011;58547;51.690;5.186;2022-08-02T10:31:26;2.58;;;1.67;;
69036;SDS011;58547;51.690;5.186;2022-08-02T10:33:54;4.35;;;1.25;;
69036;SDS011;58547;51.690;5.186;2022-08-02T10:36:24;1.63;;;1.20;;
69036;SDS011;58547;51.690;5.186;2022-08-02T10:38:52;4.10;;;1.80;;
69036;SDS011;58547;51.690;5.186;2022-08-02T10:44:20;4.15;;;1.40;;
69036;SDS011;58547;51.690;5.186;2022-08-02T10:46:47;3.67;;;1.40;;
69036;SDS011;58547;51.690;5.186;2022-08-02T10:49:16;4.03;;;1.20;;
69036;SDS011;58547;51.690;5.186;2022-08-02T10:54:28;5.93;;;1.08;;
69036;SDS011;58547;51.690;5.186;2022-08-02T10:56:58;2.30;;;1.48;;
69036;SDS011;58547;51.690;5.186;2022-08-02T11:01:51;5.15;;;1.40;;
69036;SDS011;58547;51.690;5.186;2022-08-02T11:04:25;4.88;;;1.67;;
69036;SDS011;58547;51.690;5.186;2022-08-02T11:09:43;2.72;;;1.17;;
69036;SDS011;58547;51.690;5.186;2022-08-02T11:12:15;3.17;;;1.27;;
69036;SDS011;58547;51.690;5.186;2022-08-02T11:14:43;2.80;;;0.80;;
69036;SDS011;58547;51.690;5.186;2022-08-02T11:17:17;1.73;;;1.00;;
69036;SDS011;58547;51.690;5.186;2022-08-02T11:20:43;1.55;;;1.00;;
69036;SDS011;58547;51.690;5.186;2022-08-02T11:22:41;3.13;;;1.38;;
69036;SDS011;58547;51.690;5.186;2022-08-02T11:27:45;2.30;;;1.20;;
69036;SDS011;58547;51.690;5.186;2022-08-02T11:30:11;3.08;;;1.25;;
69036;SDS011;58547;51.690;5.186;2022-08-02T11:32:37;5.13;;;1.23;;
69036;SDS011;58547;51.690;5.186;2022-08-02T11:35:02;2.45;;;1.02;;
69036;SDS011;58547;51.690;5.186;2022-08-02T11:37:28;2.72;;;1.15;;
69036;SDS011;58547;51.690;5.186;2022-08-02T11:39:56;2.95;;;1.10;;
69036;SDS011;58547;51.690;5.186;2022-08-02T11:42:21;3.30;;;1.10;;
69036;SDS011;58547;51.690;5.186;2022-08-02T11:44:56;4.67;;;1.60;;
69036;SDS011;58547;51.690;5.186;2022-08-02T11:47:21;1.63;;;1.00;;
69036;SDS011;58547;51.690;5.186;2022-08-02T11:49:47;2.15;;;1.05;;
69036;SDS011;58547;51.690;5.186;2022-08-02T11:52:12;2.60;;;1.10;;
69036;SDS011;58547;51.690;5.186;2022-08-02T11:54:38;2.97;;;1.20;;
69036;SDS011;58547;51.690;5.186;2022-08-02T11:59:40;4.55;;;1.27;;
69036;SDS011;58547;51.690;5.186;2022-08-02T12:02:07;3.10;;;1.30;;
69036;SDS011;58547;51.690;5.186;2022-08-02T12:04:34;2.13;;;1.00;;
69036;SDS011;58547;51.690;5.186;2022-08-02T12:07:01;3.17;;;1.27;;
69036;SDS011;58547;51.690;5.186;2022-08-02T12:09:28;3.30;;;1.40;;
69036;SDS011;58547;51.690;5.186;2022-08-02T12:11:55;2.88;;;1.40;;
69036;SDS011;58547;51.690;5.186;2022-08-02T12:14:22;2.70;;;1.58;;
69036;SDS011;58547;51.690;5.186;2022-08-02T12:16:49;4.88;;;1.27;;
69036;SDS011;58547;51.690;5.186;2022-08-02T12:19:34;3.17;;;1.52;;
69036;SDS011;58547;51.690;5.186;2022-08-02T12:22:14;5.88;;;1.42;;
69036;SDS011;58547;51.690;5.186;2022-08-02T12:24:41;2.72;;;1.30;;
69036;SDS011;58547;51.690;5.186;2022-08-02T12:27:08;3.88;;;1.38;;
69036;SDS011;58547;51.690;5.186;2022-08-02T12:29:38;2.40;;;1.13;;
69036;SDS011;58547;51.690;5.186;2022-08-02T12:32:04;3.70;;;1.42;;
69036;SDS011;58547;51.690;5.186;2022-08-02T12:34:31;4.03;;;1.17;;
69036;SDS011;58547;51.690;5.186;2022-08-02T12:37:05;4.28;;;1.30;;
69036;SDS011;58547;51.690;5.186;2022-08-02T12:39:42;5.53;;;1.55;;
69036;SDS011;58547;51.690;5.186;2022-08-02T12:42:10;5.05;;;2.08;;
69036;SDS011;58547;51.690;5.186;2022-08-02T12:44:54;2.50;;;1.30;;
69036;SDS011;58547;51.690;5.186;2022-08-02T12:47:22;4.57;;;1.58;;
69036;SDS011;58547;51.690;5.186;2022-08-02T12:53:09;3.45;;;1.55;;
69036;SDS011;58547;51.690;5.186;2022-08-02T12:55:45;3.53;;;1.25;;
69036;SDS011;58547;51.690;5.186;2022-08-02T12:58:12;3.03;;;1.10;;
69036;SDS011;58547;51.690;5.186;2022-08-02T13:00:38;1.83;;;0.98;;
69036;SDS011;58547;51.690;5.186;2022-08-02T13:03:04;3.88;;;1.35;;
69036;SDS011;58547;51.690;5.186;2022-08-02T13:05:31;2.78;;;1.40;;
69036;SDS011;58547;51.690;5.186;2022-08-02T13:07:59;3.72;;;1.20;;
69036;SDS011;58547;51.690;5.186;2022-08-02T13:10:25;6.22;;;1.40;;
69036;SDS011;58547;51.690;5.186;2022-08-02T13:12:51;4.57;;;1.70;;
69036;SDS011;58547;51.690;5.186;2022-08-02T13:15:17;3.30;;;1.48;;
69036;SDS011;58547;51.690;5.186;2022-08-02T13:17:43;2.47;;;1.30;;
69036;SDS011;58547;51.690;5.186;2022-08-02T13:20:09;4.40;;;1.30;;
69036;SDS011;58547;51.690;5.186;2022-08-02T13:22:36;2.10;;;1.17;;
69036;SDS011;58547;51.690;5.186;2022-08-02T13:25:02;4.20;;;1.30;;
69036;SDS011;58547;51.690;5.186;2022-08-02T13:27:28;4.57;;;0.95;;
69036;SDS011;58547;51.690;5.186;2022-08-02T13:29:55;3.42;;;1.35;;
69036;SDS011;58547;51.690;5.186;2022-08-02T13:32:21;3.83;;;1.60;;
69036;SDS011;58547;51.690;5.186;2022-08-02T13:34:48;4.47;;;1.30;;
69036;SDS011;58547;51.690;5.186;2022-08-02T13:37:13;3.42;;;1.38;;
69036;SDS011;58547;51.690;5.186;2022-08-02T13:39:38;8.57;;;2.00;;
69036;SDS011;58547;51.690;5.186;2022-08-02T13:42:04;2.90;;;1.27;;
69036;SDS011;58547;51.690;5.186;2022-08-02T13:44:29;5.60;;;1.30;;
69036;SDS011;58547;51.690;5.186;2022-08-02T13:46:55;2.95;;;1.40;;
69036;SDS011;58547;51.690;5.186;2022-08-02T13:49:20;5.70;;;1.50;;
69036;SDS011;58547;51.690;5.186;2022-08-02T13:51:46;3.40;;;1.40;;
69036;SDS011;58547;51.690;5.186;2022-08-02T13:54:12;3.03;;;1.42;;
69036;SDS011;58547;51.690;5.186;2022-08-02T13:56:37;4.82;;;1.55;;
69036;SDS011;58547;51.690;5.186;2022-08-02T13:59:03;4.18;;;1.70;;
69036;SDS011;58547;51.690;5.186;2022-08-02T14:01:28;4.80;;;1.23;;
69036;SDS011;58547;51.690;5.186;2022-08-02T14:03:54;8.57;;;1.63;;
69036;SDS011;58547;51.690;5.186;2022-08-02T14:06:19;7.72;;;1.85;;
69036;SDS011;58547;51.690;5.186;2022-08-02T14:08:46;3.40;;;1.30;;
69036;SDS011;58547;51.690;5.186;2022-08-02T14:11:11;4.40;;;1.45;;
69036;SDS011;58547;51.690;5.186;2022-08-02T14:13:37;5.88;;;1.67;;
69036;SDS011;58547;51.690;5.186;2022-08-02T14:16:02;5.47;;;1.33;;
69036;SDS011;58547;51.690;5.186;2022-08-02T14:18:28;2.95;;;1.20;;
69036;SDS011;58547;51.690;5.186;2022-08-02T14:20:54;5.53;;;1.67;;
69036;SDS011;58547;51.690;5.186;2022-08-02T14:23:20;5.68;;;1.55;;
69036;SDS011;58547;51.690;5.186;2022-08-02T14:25:45;2.25;;;1.20;;
69036;SDS011;58547;51.690;5.186;2022-08-02T14:28:10;4.82;;;1.83;;
69036;SDS011;58547;51.690;5.186;2022-08-02T14:30:36;4.13;;;1.70;;
69036;SDS011;58547;51.690;5.186;2022-08-02T14:33:01;5.70;;;1.60;;
69036;SDS011;58547;51.690;5.186;2022-08-02T14:35:29;3.17;;;1.10;;
69036;SDS011;58547;51.690;5.186;2022-08-02T14:37:58;6.05;;;1.85;;
69036;SDS011;58547;51.690;5.186;2022-08-02T14:40:23;7.03;;;1.77;;
69036;SDS011;58547;51.690;5.186;2022-08-02T14:42:50;3.47;;;1.50;;
69036;SDS011;58547;51.690;5.186;2022-08-02T14:45:16;4.00;;;1.48;;
69036;SDS011;58547;51.690;5.186;2022-08-02T14:47:43;5.38;;;1.50;;
69036;SDS011;58547;51.690;5.186;2022-08-02T14:50:08;3.65;;;1.60;;
69036;SDS011;58547;51.690;5.186;2022-08-02T14:52:34;5.30;;;1.70;;
69036;SDS011;58547;51.690;5.186;2022-08-02T14:55:00;7.75;;;1.92;;
69036;SDS011;58547;51.690;5.186;2022-08-02T14:57:28;3.85;;;1.42;;
69036;SDS011;58547;51.690;5.186;2022-08-02T14:59:53;5.57;;;1.40;;
69036;SDS011;58547;51.690;5.186;2022-08-02T15:02:19;8.52;;;2.00;;
69036;SDS011;58547;51.690;5.186;2022-08-02T15:04:44;3.33;;;1.60;;
69036;SDS011;58547;51.690;5.186;2022-08-02T15:07:10;7.03;;;1.63;;
69036;SDS011;58547;51.690;5.186;2022-08-02T15:09:36;5.75;;;1.75;;
69036;SDS011;58547;51.690;5.186;2022-08-02T15:12:01;4.68;;;1.58;;
69036;SDS011;58547;51.690;5.186;2022-08-02T15:14:29;7.78;;;1.80;;
69036;SDS011;58547;51.690;5.186;2022-08-02T15:16:55;6.68;;;2.30;;
69036;SDS011;58547;51.690;5.186;2022-08-02T15:19:20;7.20;;;1.80;;
69036;SDS011;58547;51.690;5.186;2022-08-02T15:21:46;7.72;;;1.65;;
69036;SDS011;58547;51.690;5.186;2022-08-02T15:24:11;6.97;;;2.03;;
69036;SDS011;58547;51.690;5.186;2022-08-02T15:26:36;4.25;;;1.65;;
69036;SDS011;58547;51.690;5.186;2022-08-02T15:29:02;6.68;;;1.88;;
69036;SDS011;58547;51.690;5.186;2022-08-02T15:31:27;6.30;;;1.52;;
69036;SDS011;58547;51.690;5.186;2022-08-02T15:33:54;5.20;;;1.75;;
69036;SDS011;58547;51.690;5.186;2022-08-02T15:36:19;7.28;;;2.03;;
69036;SDS011;58547;51.690;5.186;2022-08-02T15:38:46;7.63;;;2.00;;
69036;SDS011;58547;51.690;5.186;2022-08-02T15:41:12;11.65;;;2.42;;
69036;SDS011;58547;51.690;5.186;2022-08-02T15:43:37;5.55;;;1.90;;
69036;SDS011;58547;51.690;5.186;2022-08-02T15:46:03;3.03;;;1.83;;
69036;SDS011;58547;51.690;5.186;2022-08-02T15:48:28;4.03;;;1.60;;
69036;SDS011;58547;51.690;5.186;2022-08-02T15:50:53;5.10;;;1.88;;
69036;SDS011;58547;51.690;5.186;2022-08-02T15:53:19;3.92;;;2.10;;
69036;SDS011;58547;51.690;5.186;2022-08-02T15:55:44;8.50;;;2.13;;
69036;SDS011;58547;51.690;5.186;2022-08-02T15:58:09;3.65;;;1.45;;
69036;SDS011;58547;51.690;5.186;2022-08-02T16:00:35;8.48;;;1.58;;
69036;SDS011;58547;51.690;5.186;2022-08-02T16:03:00;8.00;;;2.03;;
69036;SDS011;58547;51.690;5.186;2022-08-02T16:05:26;5.22;;;1.70;;
69036;SDS011;58547;51.690;5.186;2022-08-02T16:07:51;4.13;;;1.98;;
69036;SDS011;58547;51.690;5.186;2022-08-02T16:10:17;3.67;;;1.30;;
69036;SDS011;58547;51.690;5.186;2022-08-02T16:12:42;7.57;;;2.72;;
69036;SDS011;58547;51.690;5.186;2022-08-02T16:15:08;7.57;;;2.30;;
69036;SDS011;58547;51.690;5.186;2022-08-02T16:17:33;8.50;;;1.90;;
69036;SDS011;58547;51.690;5.186;2022-08-02T16:19:59;5.60;;;2.05;;
69036;SDS011;58547;51.690;5.186;2022-08-02T16:22:24;6.22;;;1.77;;
69036;SDS011;58547;51.690;5.186;2022-08-02T16:24:50;6.43;;;1.70;;
69036;SDS011;58547;51.690;5.186;2022-08-02T16:27:16;5.38;;;2.15;;
69036;SDS011;58547;51.690;5.186;2022-08-02T16:29:42;3.40;;;1.88;;
69036;SDS011;58547;51.690;5.186;2022-08-02T16:32:08;4.38;;;1.75;;
69036;SDS011;58547;51.690;5.186;2022-08-02T16:34:33;4.00;;;1.67;;
69036;SDS011;58547;51.690;5.186;2022-08-02T16:36:59;3.60;;;1.80;;
69036;SDS011;58547;51.690;5.186;2022-08-02T16:39:24;6.65;;;2.35;;
69036;SDS011;58547;51.690;5.186;2022-08-02T16:41:50;11.52;;;2.47;;
69036;SDS011;58547;51.690;5.186;2022-08-02T16:44:15;7.75;;;2.10;;
69036;SDS011;58547;51.690;5.186;2022-08-02T16:46:40;6.45;;;2.10;;
69036;SDS011;58547;51.690;5.186;2022-08-02T16:49:06;4.80;;;2.00;;
69036;SDS011;58547;51.690;5.186;2022-08-02T16:51:31;6.45;;;2.45;;
69036;SDS011;58547;51.690;5.186;2022-08-02T16:53:56;9.85;;;2.58;;
69036;SDS011;58547;51.690;5.186;2022-08-02T16:56:22;8.85;;;3.80;;
69036;SDS011;58547;51.690;5.186;2022-08-02T16:58:47;9.23;;;2.30;;
69036;SDS011;58547;51.690;5.186;2022-08-02T17:01:13;8.50;;;2.35;;
69036;SDS011;58547;51.690;5.186;2022-08-02T17:03:38;5.72;;;2.10;;
69036;SDS011;58547;51.690;5.186;2022-08-02T17:06:07;8.60;;;2.20;;
69036;SDS011;58547;51.690;5.186;2022-08-02T17:08:32;6.25;;;2.00;;
69036;SDS011;58547;51.690;5.186;2022-08-02T17:10:58;8.60;;;2.20;;
69036;SDS011;58547;51.690;5.186;2022-08-02T17:13:24;7.47;;;2.47;;
69036;SDS011;58547;51.690;5.186;2022-08-02T17:15:49;8.23;;;2.38;;
69036;SDS011;58547;51.690;5.186;2022-08-02T17:18:14;7.70;;;2.25;;
69036;SDS011;58547;51.690;5.186;2022-08-02T17:20:39;6.82;;;2.13;;
69036;SDS011;58547;51.690;5.186;2022-08-02T17:23:05;6.97;;;2.13;;
69036;SDS011;58547;51.690;5.186;2022-08-02T17:25:30;6.45;;;1.75;;
69036;SDS011;58547;51.690;5.186;2022-08-02T17:27:56;4.78;;;1.98;;
69036;SDS011;58547;51.690;5.186;2022-08-02T17:30:22;5.63;;;1.80;;
69036;SDS011;58547;51.690;5.186;2022-08-02T17:32:48;5.53;;;1.85;;
69036;SDS011;58547;51.690;5.186;2022-08-02T17:35:13;8.00;;;2.10;;
69036;SDS011;58547;51.690;5.186;2022-08-02T17:37:38;5.85;;;1.70;;
69036;SDS011;58547;51.690;5.186;2022-08-02T17:40:04;5.78;;;1.95;;
69036;SDS011;58547;51.690;5.186;2022-08-02T17:42:31;7.40;;;2.17;;
69036;SDS011;58547;51.690;5.186;2022-08-02T17:44:57;5.47;;;1.85;;
69036;SDS011;58547;51.690;5.186;2022-08-02T17:47:23;8.10;;;2.65;;
69036;SDS011;58547;51.690;5.186;2022-08-02T17:49:49;6.97;;;2.00;;